createdAt,value
2023-02-05T00:02:11.046Z,2.98
2023-02-05T00:04:39.721Z,3.23
2023-02-05T00:07:08.515Z,3.45
2023-02-05T00:09:37.090Z,3.60
2023-02-05T00:12:05.572Z,3.72
2023-02-05T00:14:34.281Z,3.84
2023-02-05T00:17:02.460Z,3.94
2023-02-05T00:19:30.722Z,4.00
2023-02-05T00:21:59.007Z,4.06
2023-02-05T00:24:27.373Z,4.11
2023-02-05T00:26:55.839Z,4.15
2023-02-05T00:29:23.917Z,4.18
2023-02-05T00:31:53.188Z,4.20
2023-02-05T00:34:21.617Z,4.24
2023-02-05T00:36:49.766Z,4.22
2023-02-05T00:39:19.174Z,4.22
2023-02-05T00:41:49.307Z,4.25
2023-02-05T00:44:17.708Z,4.25
2023-02-05T00:46:45.839Z,4.19
2023-02-05T00:49:14.118Z,3.88
2023-02-05T00:51:42.808Z,3.50
2023-02-05T00:54:11.310Z,3.19
2023-02-05T00:56:39.557Z,2.97
2023-02-05T00:59:07.794Z,2.76
2023-02-05T01:01:36.137Z,2.60
2023-02-05T01:04:04.797Z,2.47
2023-02-05T01:06:33.482Z,2.35
2023-02-05T01:09:02.785Z,2.31
2023-02-05T01:11:31.162Z,2.59
2023-02-05T01:13:59.234Z,2.92
2023-02-05T01:16:27.433Z,3.18
2023-02-05T01:18:56.919Z,3.40
2023-02-05T01:21:25.089Z,3.57
2023-02-05T01:23:55.001Z,3.72
2023-02-05T01:26:23.483Z,3.84
2023-02-05T01:28:51.552Z,3.91
2023-02-05T01:31:20.845Z,3.97
2023-02-05T01:33:49.180Z,4.02
2023-02-05T01:36:18.085Z,4.04
2023-02-05T01:38:46.603Z,4.07
2023-02-05T01:41:14.978Z,4.10
2023-02-05T01:43:43.154Z,4.13
2023-02-05T01:46:24.177Z,4.16
2023-02-05T01:48:56.743Z,4.13
2023-02-05T01:51:28.649Z,4.09
2023-02-05T01:53:57.043Z,4.06
2023-02-05T01:56:32.206Z,4.06
2023-02-05T01:59:09.208Z,4.03
2023-02-05T02:01:40.112Z,4.01
2023-02-05T02:04:11.354Z,3.99
2023-02-05T02:06:39.526Z,3.98
2023-02-05T02:09:09.224Z,3.94
2023-02-05T02:11:41.961Z,3.92
2023-02-05T02:14:12.229Z,3.89
2023-02-05T02:16:41.021Z,3.87
2023-02-05T02:19:33.153Z,3.85
2023-02-05T02:22:18.076Z,3.82
2023-02-05T02:25:14.045Z,3.83
2023-02-05T02:27:45.296Z,3.84
2023-02-05T02:30:44.218Z,3.82
2023-02-05T02:33:27.869Z,3.74
2023-02-05T02:36:08.841Z,3.67
2023-02-05T02:38:51.507Z,3.60
2023-02-05T02:41:36.457Z,3.54
2023-02-05T02:44:23.294Z,3.49
2023-02-05T02:46:57.244Z,3.44
2023-02-05T02:49:36.891Z,3.43
2023-02-05T02:52:08.748Z,3.42
2023-02-05T02:54:40.151Z,3.40
2023-02-05T02:57:10.780Z,3.33
2023-02-05T02:59:41.700Z,3.26
2023-02-05T03:02:13.050Z,3.21
2023-02-05T03:04:45.750Z,3.16
2023-02-05T03:07:25.122Z,3.17
2023-02-05T03:10:03.417Z,3.46
2023-02-05T03:12:31.770Z,3.51
2023-02-05T03:15:00.480Z,3.56
2023-02-05T03:17:30.389Z,3.62
2023-02-05T03:20:24.961Z,3.56
2023-02-05T03:22:53.141Z,3.03
2023-02-05T03:25:23.282Z,2.55
2023-02-05T03:27:55.043Z,2.14
2023-02-05T03:30:31.471Z,1.81
2023-02-05T03:33:26.390Z,1.51
2023-02-05T03:36:10.332Z,1.24
2023-02-05T03:39:09.940Z,1.01
2023-02-05T03:42:01.051Z,0.91
2023-02-05T03:45:14.541Z,1.30
2023-02-05T03:48:14.527Z,1.61
2023-02-05T03:51:14.136Z,1.82
2023-02-05T03:54:12.087Z,1.95
2023-02-05T03:56:50.409Z,2.09
2023-02-05T03:59:20.542Z,2.21
2023-02-05T04:01:49.078Z,2.30
2023-02-05T04:04:17.787Z,2.35
2023-02-05T04:06:48.913Z,2.39
2023-02-05T04:09:17.612Z,2.45
2023-02-05T04:11:46.293Z,2.50
2023-02-05T04:14:14.455Z,2.54
2023-02-05T04:16:43.503Z,2.56
2023-02-05T04:19:12.784Z,2.59
2023-02-05T04:21:41.142Z,2.58
2023-02-05T04:24:09.347Z,2.52
2023-02-05T04:26:37.893Z,2.47
2023-02-05T04:29:07.402Z,2.45
2023-02-05T04:31:40.318Z,2.42
2023-02-05T04:34:08.496Z,2.44
2023-02-05T04:36:40.023Z,2.46
2023-02-05T04:39:08.949Z,2.44
2023-02-05T04:41:37.187Z,2.42
2023-02-05T04:44:06.926Z,2.45
2023-02-05T04:46:35.074Z,2.50
2023-02-05T04:49:03.365Z,2.57
2023-02-05T04:51:31.421Z,2.62
2023-02-05T04:53:59.700Z,2.65
2023-02-05T04:56:28.148Z,2.71
2023-02-05T04:58:56.356Z,2.78
2023-02-05T05:01:24.548Z,2.80
2023-02-05T05:03:52.724Z,2.85
2023-02-05T05:06:21.084Z,2.87
2023-02-05T05:08:49.157Z,2.88
2023-02-05T05:11:19.670Z,2.87
2023-02-05T05:13:49.342Z,2.87
2023-02-05T05:16:17.923Z,2.88
2023-02-05T05:18:46.314Z,2.89
2023-02-05T05:21:14.361Z,2.91
2023-02-05T05:23:42.488Z,2.92
2023-02-05T05:26:12.195Z,2.94
2023-02-05T05:28:40.519Z,2.98
2023-02-05T05:31:16.807Z,3.04
2023-02-05T05:33:45.625Z,3.09
2023-02-05T05:36:14.126Z,3.15
2023-02-05T05:38:43.510Z,3.19
2023-02-05T05:41:53.804Z,3.24
2023-02-05T05:44:21.920Z,3.30
2023-02-05T05:46:50.736Z,3.35
2023-02-05T05:49:18.777Z,3.39
2023-02-05T05:51:46.880Z,3.43
2023-02-05T05:54:15.161Z,3.46
2023-02-05T05:56:45.168Z,3.49
2023-02-05T05:59:13.350Z,3.53
2023-02-05T06:01:41.516Z,3.57
2023-02-05T06:04:09.762Z,3.58
2023-02-05T06:06:38.301Z,3.57
2023-02-05T06:09:06.362Z,3.57
2023-02-05T06:11:34.412Z,3.56
2023-02-05T06:14:02.537Z,3.55
2023-02-05T06:16:30.720Z,3.54
2023-02-05T06:18:58.923Z,3.53
2023-02-05T06:21:27.040Z,3.52
2023-02-05T06:23:55.271Z,3.50
2023-02-05T06:26:23.545Z,3.48
2023-02-05T06:28:51.718Z,3.47
2023-02-05T06:31:19.878Z,3.46
2023-02-05T06:33:48.068Z,3.47
2023-02-05T06:36:16.153Z,3.50
2023-02-05T06:38:44.536Z,3.51
2023-02-05T06:41:12.610Z,3.54
2023-02-05T06:43:40.752Z,3.57
2023-02-05T06:46:09.016Z,3.60
2023-02-05T06:48:37.164Z,3.61
2023-02-05T06:51:05.512Z,3.61
2023-02-05T06:53:33.600Z,3.63
2023-02-05T06:56:01.714Z,3.64
2023-02-05T06:58:29.778Z,3.64
2023-02-05T07:00:57.797Z,3.66
2023-02-05T07:03:26.071Z,3.69
2023-02-05T07:05:54.156Z,3.72
2023-02-05T07:08:22.409Z,3.75
2023-02-05T07:10:50.482Z,3.77
2023-02-05T07:13:18.753Z,3.77
2023-02-05T07:15:47.542Z,3.77
2023-02-05T07:18:15.997Z,3.78
2023-02-05T07:20:45.357Z,3.80
2023-02-05T07:23:13.385Z,3.83
2023-02-05T07:25:41.510Z,3.85
2023-02-05T07:28:10.104Z,3.87
2023-02-05T07:30:38.612Z,3.89
2023-02-05T07:33:06.712Z,3.90
2023-02-05T07:51:03.196Z,3.81
2023-02-05T07:53:31.414Z,3.48
2023-02-05T07:56:04.296Z,3.13
2023-02-05T08:35:03.125Z,1.84
2023-02-05T08:37:31.409Z,1.87
2023-02-05T08:39:59.448Z,1.96
2023-02-05T08:42:27.509Z,2.39
2023-02-05T08:44:58.526Z,2.84
2023-02-05T08:47:27.366Z,3.22
2023-02-05T08:49:55.562Z,3.56
2023-02-05T08:52:24.027Z,3.84
2023-02-05T08:54:52.178Z,4.08
2023-02-05T08:57:20.406Z,4.30
2023-02-05T08:59:48.773Z,4.50
2023-02-05T09:02:17.133Z,4.65
2023-02-05T09:04:45.613Z,4.71
2023-02-05T09:07:13.723Z,4.50
2023-02-05T09:09:41.874Z,4.24
2023-02-05T09:12:12.920Z,4.05
2023-02-05T09:14:41.486Z,3.90
2023-02-05T09:17:10.575Z,3.77
2023-02-05T09:19:40.280Z,3.65
2023-02-05T09:22:09.082Z,3.55
2023-02-05T09:24:38.340Z,3.47
2023-02-05T09:27:06.756Z,3.42
2023-02-05T09:29:35.037Z,3.40
2023-02-05T09:32:03.211Z,3.36
2023-02-05T09:34:32.409Z,3.32
2023-02-05T09:37:00.797Z,3.24
2023-02-05T09:40:13.088Z,3.16
2023-02-05T09:42:44.645Z,3.10
2023-02-05T09:45:36.743Z,3.03
2023-02-05T09:48:10.490Z,2.94
2023-02-05T09:50:39.481Z,2.91
2023-02-05T09:53:16.982Z,2.91
2023-02-05T09:55:47.529Z,2.90
2023-02-05T09:58:19.571Z,2.89
2023-02-05T10:00:49.786Z,2.89
2023-02-05T10:03:30.104Z,2.90
2023-02-05T10:06:11.266Z,2.93
2023-02-05T10:09:02.537Z,2.99
2023-02-05T10:11:52.043Z,3.06
2023-02-05T10:14:26.849Z,3.12
2023-02-05T10:17:17.964Z,3.15
2023-02-05T10:20:07.299Z,3.20
2023-02-05T10:22:47.783Z,3.25
2023-02-05T10:25:33.723Z,3.29
2023-02-05T10:28:20.578Z,3.34
2023-02-05T10:31:07.359Z,3.40
2023-02-05T10:33:56.079Z,3.42
2023-02-05T10:36:26.986Z,3.42
2023-02-05T10:38:57.321Z,3.45
2023-02-05T10:42:19.858Z,3.47
2023-02-05T10:44:53.047Z,3.51
2023-02-05T10:47:45.085Z,3.54
2023-02-05T10:50:25.744Z,3.49
2023-02-05T10:52:53.859Z,3.48
2023-02-05T10:55:22.139Z,3.47
2023-02-05T10:57:50.373Z,3.48
2023-02-05T11:00:23.330Z,3.48
2023-02-05T11:02:55.096Z,3.46
2023-02-05T11:05:38.354Z,3.40
2023-02-05T11:08:32.523Z,3.38
2023-02-05T11:11:01.830Z,3.40
2023-02-05T11:13:30.670Z,3.40
2023-02-05T11:16:08.509Z,3.42
2023-02-05T11:18:41.151Z,3.48
2023-02-05T11:21:10.131Z,3.54
2023-02-05T11:23:40.548Z,3.58
2023-02-05T11:26:21.379Z,3.59
2023-02-05T11:28:50.609Z,3.56
2023-02-05T11:31:25.923Z,3.55
2023-02-05T11:34:09.556Z,3.58
2023-02-05T11:36:48.312Z,3.63
2023-02-05T11:39:37.965Z,3.66
2023-02-05T11:42:22.205Z,3.65
2023-02-05T11:44:54.982Z,3.62
2023-02-05T11:47:37.047Z,3.61
2023-02-05T11:50:18.855Z,3.64
2023-02-05T11:52:47.359Z,3.66
2023-02-05T11:55:32.016Z,3.66
2023-02-05T11:58:06.544Z,3.68
2023-02-05T12:00:35.054Z,3.69
2023-02-05T12:03:06.603Z,3.71
2023-02-05T12:05:42.584Z,3.74
2023-02-05T12:08:23.295Z,3.77
2023-02-05T12:11:15.227Z,3.81
2023-02-05T12:14:05.488Z,3.80
2023-02-05T12:16:47.676Z,3.77
2023-02-05T12:19:23.069Z,3.73
2023-02-05T12:22:13.878Z,3.71
2023-02-05T12:24:51.314Z,3.74
2023-02-05T12:27:28.906Z,3.74
2023-02-05T12:30:15.829Z,3.79
2023-02-05T12:33:01.263Z,3.83
2023-02-05T12:36:05.050Z,3.88
2023-02-05T12:38:42.457Z,4.00
2023-02-05T12:41:53.135Z,4.16
2023-02-05T12:44:49.680Z,4.44
2023-02-05T12:47:42.671Z,4.86
2023-02-05T12:50:14.442Z,5.26
2023-02-05T12:53:27.075Z,5.59
2023-02-05T12:56:46.214Z,6.21
2023-02-05T12:59:33.237Z,6.61
2023-02-05T13:02:20.215Z,6.95
2023-02-05T13:04:54.469Z,7.88
2023-02-05T13:07:32.950Z,9.22
2023-02-05T13:10:13.989Z,10.57
2023-02-05T13:12:48.850Z,10.95
2023-02-05T13:15:25.596Z,10.63
2023-02-05T13:18:02.949Z,9.92
2023-02-05T13:21:01.614Z,9.27
2023-02-05T13:23:49.958Z,8.63
2023-02-05T13:26:25.012Z,8.14
2023-02-05T13:29:15.763Z,7.79
2023-02-05T13:31:55.983Z,7.33
2023-02-05T13:34:26.483Z,6.82
2023-02-05T13:37:17.149Z,6.45
2023-02-05T13:40:10.608Z,6.18
2023-02-05T13:42:47.182Z,5.94
2023-02-05T13:45:57.412Z,5.78
2023-02-05T13:48:44.824Z,6.21
2023-02-05T13:52:00.890Z,6.28
2023-02-05T13:54:49.250Z,6.45
2023-02-05T13:57:32.659Z,6.51
2023-02-05T14:00:01.629Z,6.51
2023-02-05T14:02:50.960Z,6.20
2023-02-05T14:05:37.523Z,5.86
2023-02-05T14:08:16.013Z,5.60
2023-02-05T14:10:45.434Z,5.41
2023-02-05T14:13:34.365Z,5.24
2023-02-05T14:16:24.562Z,5.11
2023-02-05T14:19:01.840Z,5.03
2023-02-05T14:21:29.983Z,4.94
2023-02-05T14:24:23.131Z,4.84
2023-02-05T14:26:56.333Z,4.66
2023-02-05T14:29:48.204Z,4.51
2023-02-05T14:32:28.618Z,4.36
2023-02-05T14:35:24.691Z,4.24
2023-02-05T14:37:59.004Z,4.11
2023-02-05T14:40:35.888Z,4.06
2023-02-05T14:43:31.874Z,4.00
2023-02-05T14:46:19.958Z,3.92
2023-02-05T14:48:48.825Z,3.85
2023-02-05T14:51:38.070Z,3.81
2023-02-05T14:54:18.175Z,3.76
2023-02-05T14:57:09.330Z,3.71
2023-02-05T14:59:45.637Z,3.62
2023-02-05T15:02:51.639Z,3.50
2023-02-05T15:05:30.651Z,3.36
2023-02-05T15:08:10.278Z,3.27
2023-02-05T15:11:03.809Z,3.17
2023-02-05T15:13:32.697Z,3.06
2023-02-05T15:16:13.032Z,2.96
2023-02-05T15:18:48.231Z,2.88
2023-02-05T15:21:28.843Z,2.80
2023-02-05T15:24:18.179Z,2.71
2023-02-05T15:27:01.033Z,2.65
2023-02-05T15:29:35.751Z,2.61
2023-02-05T15:32:14.589Z,2.57
2023-02-05T15:34:52.510Z,2.56
2023-02-05T15:37:38.979Z,2.55
2023-02-05T15:40:19.394Z,2.56
2023-02-05T15:42:53.843Z,2.58
2023-02-05T15:45:26.789Z,2.58
2023-02-05T15:48:11.286Z,2.59
2023-02-05T15:50:53.066Z,2.58
2023-02-05T15:53:45.961Z,2.58
2023-02-05T15:56:20.144Z,2.57
2023-02-05T15:58:59.023Z,2.58
2023-02-05T16:01:34.143Z,2.59
2023-02-05T16:04:02.715Z,2.60
2023-02-05T16:06:30.960Z,2.61
2023-02-05T16:08:59.041Z,2.62
2023-02-05T16:11:28.534Z,2.60
2023-02-05T16:14:16.733Z,2.56
2023-02-05T16:16:47.820Z,2.52
2023-02-05T16:19:21.849Z,2.48
2023-02-05T16:22:04.536Z,2.44
2023-02-05T16:24:38.211Z,2.41
2023-02-05T16:27:15.866Z,2.38
2023-02-05T16:30:05.420Z,2.33
2023-02-05T16:32:44.021Z,2.29
2023-02-05T16:35:30.885Z,2.25
2023-02-05T16:38:01.064Z,2.21
2023-02-05T16:40:46.185Z,2.18
2023-02-05T16:43:20.650Z,2.13
2023-02-05T16:46:21.787Z,2.10
2023-02-05T16:48:53.274Z,2.04
2023-02-05T16:51:27.449Z,2.01
2023-02-05T16:53:55.739Z,1.97
2023-02-05T16:56:27.311Z,1.94
2023-02-05T16:58:59.382Z,1.88
2023-02-05T17:01:36.293Z,1.85
2023-02-05T17:04:05.431Z,1.84
2023-02-05T17:06:36.582Z,1.84
2023-02-05T17:09:05.789Z,1.85
2023-02-05T17:11:33.968Z,1.86
2023-02-05T17:14:29.666Z,1.86
2023-02-05T17:17:17.111Z,1.87
2023-02-05T17:20:01.862Z,1.87
2023-02-05T17:22:30.642Z,1.89
2023-02-05T17:24:59.333Z,1.92
2023-02-05T17:27:32.651Z,1.94
2023-02-05T17:30:00.907Z,1.97
2023-02-05T17:32:31.678Z,2.00
2023-02-05T17:35:00.593Z,2.03
2023-02-05T17:37:28.910Z,2.06
2023-02-05T17:39:58.013Z,2.09
2023-02-05T17:42:26.857Z,2.12
2023-02-05T17:44:56.205Z,2.14
2023-02-05T17:47:24.374Z,2.16
2023-02-05T17:49:52.635Z,2.19
2023-02-05T17:52:20.917Z,2.21
2023-02-05T17:54:48.991Z,2.23
2023-02-05T17:57:19.910Z,2.24
2023-02-05T17:59:48.933Z,2.24
2023-02-05T18:02:17.682Z,2.24
2023-02-05T18:04:46.184Z,2.23
2023-02-05T18:07:23.325Z,2.22
2023-02-05T18:09:51.542Z,2.19
2023-02-05T18:12:19.874Z,2.17
2023-02-05T18:14:48.198Z,2.14
2023-02-05T18:17:16.601Z,2.12
2023-02-05T18:19:44.792Z,2.07
2023-02-05T18:22:13.106Z,2.05
2023-02-05T18:24:41.201Z,2.04
2023-02-05T18:27:09.898Z,2.03
2023-02-05T18:29:39.190Z,2.04
2023-02-05T18:32:07.873Z,2.02
2023-02-05T18:34:35.988Z,2.01
2023-02-05T18:37:04.113Z,2.00
2023-02-05T18:39:32.596Z,2.00
2023-02-05T18:42:01.090Z,2.00
2023-02-05T18:44:29.252Z,1.99
2023-02-05T18:46:57.665Z,1.98
2023-02-05T18:49:25.833Z,1.97
2023-02-05T18:51:53.979Z,1.96
2023-02-05T18:54:22.046Z,1.95
2023-02-05T18:56:51.789Z,1.94
2023-02-05T18:59:21.348Z,1.93
2023-02-05T19:01:50.462Z,1.92
2023-02-05T19:04:18.780Z,1.96
2023-02-05T19:06:52.379Z,2.32
2023-02-05T19:09:22.461Z,2.72
2023-02-05T19:11:51.450Z,3.03
2023-02-05T19:14:21.019Z,3.29
2023-02-05T19:16:50.035Z,3.49
2023-02-05T19:19:21.825Z,3.65
2023-02-05T19:21:53.590Z,3.77
2023-02-05T19:24:22.511Z,3.91
2023-02-05T19:26:51.444Z,4.00
2023-02-05T19:29:20.791Z,4.07
2023-02-05T19:31:49.835Z,4.09
2023-02-05T19:34:18.153Z,3.81
2023-02-05T19:36:46.299Z,3.45
2023-02-05T19:39:15.080Z,3.17
2023-02-05T19:41:48.572Z,2.95
2023-02-05T19:44:17.550Z,2.77
2023-02-05T19:46:46.809Z,2.62
2023-02-05T19:49:18.363Z,2.51
2023-02-05T19:51:52.304Z,2.43
2023-02-05T19:54:21.718Z,2.35
2023-02-05T19:56:50.580Z,2.27
2023-02-05T19:59:19.046Z,2.21
2023-02-05T20:01:48.023Z,2.15
2023-02-05T20:04:19.327Z,2.10
2023-02-05T20:06:48.231Z,2.04
2023-02-05T20:09:17.451Z,2.01
2023-02-05T20:11:52.808Z,1.97
2023-02-05T20:14:21.972Z,1.95
2023-02-05T20:16:52.154Z,1.92
2023-02-05T20:19:20.838Z,1.90
2023-02-05T20:21:49.449Z,1.85
2023-02-05T20:24:17.795Z,1.81
2023-02-05T20:26:48.547Z,1.78
2023-02-05T20:29:36.152Z,1.75
2023-02-05T20:32:04.800Z,1.74
2023-02-05T20:34:36.046Z,1.73
2023-02-05T20:37:06.831Z,1.72
2023-02-05T20:39:38.666Z,1.69
2023-02-05T20:42:07.221Z,1.68
2023-02-05T20:44:36.412Z,1.67
2023-02-05T20:47:07.429Z,1.64
2023-02-05T20:49:36.793Z,1.62
2023-02-05T20:52:05.224Z,1.61
2023-02-05T20:54:34.213Z,1.59
2023-02-05T20:57:02.603Z,1.57
2023-02-05T20:59:36.779Z,1.55
2023-02-05T21:02:05.277Z,1.52
2023-02-05T21:04:33.462Z,1.55
2023-02-05T21:07:01.741Z,1.89
2023-02-05T21:09:29.813Z,2.28
2023-02-05T21:11:57.990Z,2.58
2023-02-05T21:14:26.159Z,2.82
2023-02-05T21:16:54.439Z,3.01
2023-02-05T21:19:24.767Z,3.13
2023-02-05T21:21:53.240Z,3.22
2023-02-05T21:24:21.675Z,3.32
2023-02-05T21:26:50.248Z,3.42
2023-02-05T21:29:20.558Z,3.49
2023-02-05T21:31:55.658Z,3.54
2023-02-05T21:34:28.239Z,3.58
2023-02-05T21:36:57.800Z,3.62
2023-02-05T21:39:25.917Z,3.60
2023-02-05T21:41:54.529Z,3.28
2023-02-05T21:44:23.694Z,2.90
2023-02-05T21:46:53.868Z,2.58
2023-02-05T21:49:22.210Z,2.32
2023-02-05T21:51:53.273Z,2.11
2023-02-05T21:54:25.706Z,1.92
2023-02-05T21:56:54.348Z,1.76
2023-02-05T21:59:23.198Z,1.62
2023-02-05T22:01:51.726Z,1.51
2023-02-05T22:04:20.467Z,1.41
2023-02-05T22:06:50.292Z,1.32
2023-02-05T22:09:18.760Z,1.31
2023-02-05T22:11:50.202Z,1.61
2023-02-05T22:14:18.816Z,1.97
2023-02-05T22:16:47.001Z,2.26
2023-02-05T22:19:15.131Z,2.50
2023-02-05T22:21:43.333Z,2.68
2023-02-05T22:24:15.287Z,2.82
2023-02-05T22:26:44.793Z,2.94
2023-02-05T22:29:16.004Z,3.05
2023-02-05T22:31:44.922Z,3.12
2023-02-05T22:34:13.184Z,3.14
2023-02-05T22:36:41.557Z,2.87
2023-02-05T22:39:10.284Z,2.53
2023-02-05T22:41:41.704Z,2.23
2023-02-05T22:44:11.411Z,2.00
2023-02-05T22:46:42.276Z,1.81
2023-02-05T22:49:12.260Z,1.66
2023-02-05T22:51:41.047Z,1.54
2023-02-05T22:54:11.688Z,1.43
2023-02-05T22:56:39.855Z,1.33
2023-02-05T22:59:08.995Z,1.25
2023-02-05T23:01:39.059Z,1.18
2023-02-05T23:04:08.826Z,1.12
2023-02-05T23:06:39.855Z,1.08
2023-02-05T23:09:11.292Z,1.05
2023-02-05T23:11:39.878Z,1.03
2023-02-05T23:14:08.738Z,1.01
2023-02-05T23:16:42.168Z,0.99
2023-02-05T23:19:14.468Z,1.05
2023-02-05T23:21:42.580Z,1.52
2023-02-05T23:24:11.360Z,1.97
2023-02-05T23:26:44.048Z,2.30
2023-02-05T23:29:14.266Z,2.56
2023-02-05T23:31:42.801Z,2.75
2023-02-05T23:34:11.442Z,2.90
2023-02-05T23:36:39.712Z,2.97
2023-02-05T23:39:08.284Z,2.70
2023-02-05T23:41:36.807Z,2.37
2023-02-05T23:44:08.531Z,2.08
2023-02-05T23:46:37.360Z,1.87
2023-02-05T23:49:06.532Z,1.71
2023-02-05T23:51:34.966Z,1.57
2023-02-05T23:54:04.357Z,1.45
2023-02-05T23:56:32.489Z,1.33
2023-02-05T23:59:01.377Z,1.22
